createdAt,value
2019-02-06T00:00:41.392Z,1022.23
2019-02-06T00:01:42.423Z,1022.23
2019-02-06T00:04:24.438Z,1022.27
2019-02-06T00:05:33.100Z,1022.31
2019-02-06T00:08:34.813Z,1022.27
2019-02-06T00:09:46.995Z,1022.30
2019-02-06T00:10:44.448Z,1022.31
2019-02-06T00:11:44.470Z,1022.29
2019-02-06T00:12:34.816Z,1022.28
2019-02-06T00:14:53.137Z,1022.29
2019-02-06T00:15:53.672Z,1022.23
2019-02-06T00:16:53.276Z,1022.29
2019-02-06T00:17:54.713Z,1022.31
2019-02-06T00:18:53.267Z,1022.30
2019-02-06T00:19:53.023Z,1022.34
2019-02-06T00:20:54.197Z,1022.35
2019-02-06T00:21:53.082Z,1022.32
2019-02-06T00:22:53.079Z,1022.27
2019-02-06T00:23:53.192Z,1022.27
2019-02-06T00:24:52.986Z,1022.29
2019-02-06T00:25:52.943Z,1022.32
2019-02-06T00:26:55.673Z,1022.32
2019-02-06T00:27:53.163Z,1022.28
2019-02-06T00:28:53.867Z,1022.34
2019-02-06T00:29:54.880Z,1022.36
2019-02-06T00:30:54.358Z,1022.28
2019-02-06T00:31:53.410Z,1022.32
2019-02-06T00:32:53.100Z,1022.34
2019-02-06T00:34:10.458Z,1022.34
2019-02-06T00:38:49.011Z,1022.26
2019-02-06T00:44:40.424Z,1022.36
2019-02-06T00:45:40.652Z,1022.27
2019-02-06T00:46:41.314Z,1022.30
2019-02-06T00:56:21.563Z,1022.33
2019-02-06T00:57:21.626Z,1022.31
2019-02-06T00:58:21.434Z,1022.33
2019-02-06T00:59:21.443Z,1022.32
2019-02-06T01:00:22.695Z,1022.33
2019-02-06T01:01:24.371Z,1022.28
2019-02-06T01:04:05.675Z,1022.28
2019-02-06T01:06:23.232Z,1022.36
2019-02-06T01:07:23.342Z,1022.34
2019-02-06T01:08:23.410Z,1022.33
2019-02-06T01:09:24.673Z,1022.36
2019-02-06T01:10:23.326Z,1022.35
2019-02-06T01:11:23.325Z,1022.37
2019-02-06T01:12:23.158Z,1022.37
2019-02-06T01:16:19.227Z,1022.39
2019-02-06T01:18:39.269Z,1022.40
2019-02-06T01:19:39.230Z,1022.40
2019-02-06T01:20:39.197Z,1022.38
2019-02-06T01:21:39.428Z,1022.41
2019-02-06T01:22:39.136Z,1022.41
2019-02-06T01:23:39.109Z,1022.38
2019-02-06T01:24:39.218Z,1022.36
2019-02-06T01:25:39.089Z,1022.34
2019-02-06T01:26:39.128Z,1022.30
2019-02-06T01:27:38.996Z,1022.35
2019-02-06T01:28:39.666Z,1022.31
2019-02-06T01:29:49.149Z,1022.32
2019-02-06T01:32:32.376Z,1022.30
2019-02-06T01:33:32.669Z,1022.37
2019-02-06T01:34:32.564Z,1022.34
2019-02-06T01:35:32.638Z,1022.36
2019-02-06T01:36:32.365Z,1022.38
2019-02-06T01:37:32.457Z,1022.33
2019-02-06T01:38:33.223Z,1022.37
2019-02-06T01:39:32.271Z,1022.35
2019-02-06T01:40:32.314Z,1022.33
2019-02-06T01:41:33.013Z,1022.41
2019-02-06T01:42:32.272Z,1022.35
2019-02-06T01:43:44.027Z,1022.35
2019-02-06T01:46:56.511Z,1022.39
2019-02-06T01:49:39.543Z,1022.37
2019-02-06T01:50:39.655Z,1022.39
2019-02-06T01:51:39.729Z,1022.35
2019-02-06T01:52:39.568Z,1022.39
2019-02-06T01:54:59.960Z,1022.34
2019-02-06T01:57:29.536Z,1022.39
2019-02-06T02:06:02.411Z,1022.42
2019-02-06T02:06:59.010Z,1022.38
2019-02-06T02:07:59.188Z,1022.37
2019-02-06T02:08:58.900Z,1022.35
2019-02-06T02:09:58.906Z,1022.35
2019-02-06T02:10:59.555Z,1022.30
2019-02-06T02:11:59.066Z,1022.29
2019-02-06T02:12:58.838Z,1022.24
2019-02-06T02:15:24.413Z,1022.28
2019-02-06T02:19:58.712Z,1022.28
2019-02-06T02:24:29.066Z,1022.35
2019-02-06T02:25:29.061Z,1022.41
2019-02-06T02:26:29.122Z,1022.39
2019-02-06T02:27:29.143Z,1022.37
2019-02-06T02:28:28.953Z,1022.42
2019-02-06T02:29:29.056Z,1022.46
2019-02-06T02:30:28.913Z,1022.49
2019-02-06T02:31:28.869Z,1022.45
2019-02-06T02:32:28.994Z,1022.47
2019-02-06T02:33:28.933Z,1022.41
2019-02-06T02:34:29.615Z,1022.38
2019-02-06T02:35:29.548Z,1022.39
2019-02-06T02:36:29.344Z,1022.37
2019-02-06T02:37:28.975Z,1022.35
2019-02-06T02:38:28.813Z,1022.36
2019-02-06T02:39:29.491Z,1022.36
2019-02-06T02:43:21.457Z,1022.33
2019-02-06T02:44:21.729Z,1022.39
2019-02-06T02:45:21.340Z,1022.35
2019-02-06T02:46:22.025Z,1022.39
2019-02-06T02:47:21.206Z,1022.37
2019-02-06T02:48:21.260Z,1022.35
2019-02-06T02:49:21.197Z,1022.35
2019-02-06T02:50:21.295Z,1022.40
2019-02-06T02:51:21.206Z,1022.37
2019-02-06T02:52:22.950Z,1022.33
2019-02-06T02:53:21.133Z,1022.34
2019-02-06T02:54:21.284Z,1022.30
2019-02-06T02:55:21.194Z,1022.31
2019-02-06T02:56:21.056Z,1022.30
2019-02-06T02:57:21.132Z,1022.24
2019-02-06T02:58:21.051Z,1022.27
2019-02-06T02:59:22.007Z,1022.26
2019-02-06T03:00:23.877Z,1022.35
2019-02-06T03:01:21.135Z,1022.27
2019-02-06T03:02:21.079Z,1022.28
2019-02-06T03:03:21.142Z,1022.28
2019-02-06T03:04:21.933Z,1022.23
2019-02-06T03:05:21.093Z,1022.27
2019-02-06T03:06:28.180Z,1022.24
2019-02-06T03:07:22.072Z,1022.28
2019-02-06T03:08:20.923Z,1022.31
2019-02-06T03:09:21.049Z,1022.35
2019-02-06T03:10:21.408Z,1022.31
2019-02-06T03:11:30.958Z,1022.26
2019-02-06T03:13:42.383Z,1022.32
2019-02-06T03:14:43.096Z,1022.32
2019-02-06T03:15:43.355Z,1022.26
2019-02-06T03:16:42.665Z,1022.28
2019-02-06T03:17:42.415Z,1022.26
2019-02-06T03:18:42.463Z,1022.25
2019-02-06T03:19:42.356Z,1022.19
2019-02-06T03:20:42.351Z,1022.21
2019-02-06T03:21:42.345Z,1022.23
2019-02-06T03:22:42.242Z,1022.24
2019-02-06T03:23:43.326Z,1022.28
2019-02-06T03:24:42.216Z,1022.32
2019-02-06T03:25:42.370Z,1022.26
2019-02-06T03:26:42.254Z,1022.29
2019-02-06T03:27:42.206Z,1022.21
2019-02-06T03:28:42.265Z,1022.26
2019-02-06T03:29:43.037Z,1022.26
2019-02-06T03:32:11.354Z,1022.14
2019-02-06T03:33:11.034Z,1022.22
2019-02-06T03:34:11.067Z,1022.21
2019-02-06T03:35:19.019Z,1022.27
2019-02-06T03:36:17.964Z,1022.22
2019-02-06T03:37:20.232Z,1022.26
2019-02-06T03:38:10.920Z,1022.23
2019-02-06T03:39:19.841Z,1022.27
2019-02-06T03:40:11.093Z,1022.22
2019-02-06T03:42:44.643Z,1022.16
2019-02-06T03:43:55.808Z,1022.22
2019-02-06T03:44:45.034Z,1022.28
2019-02-06T03:45:52.265Z,1022.23
2019-02-06T03:46:52.519Z,1022.19
2019-02-06T03:47:54.281Z,1022.11
2019-02-06T03:48:44.862Z,1022.11
2019-02-06T03:49:44.977Z,1022.14
2019-02-06T03:50:45.045Z,1022.10
2019-02-06T03:51:46.488Z,1022.07
2019-02-06T03:52:44.680Z,1021.99
2019-02-06T03:53:44.461Z,1022.04
2019-02-06T03:54:44.456Z,1022.06
2019-02-06T03:55:45.858Z,1022.09
2019-02-06T03:56:55.078Z,1022.10
2019-02-06T03:57:44.815Z,1022.11
2019-02-06T04:00:04.153Z,1022.11
2019-02-06T04:01:12.966Z,1022.10
2019-02-06T04:02:14.574Z,1022.05
2019-02-06T04:03:04.354Z,1022.10
2019-02-06T04:04:07.188Z,1022.07
2019-02-06T04:05:04.201Z,1022.08
2019-02-06T04:06:04.606Z,1022.14
2019-02-06T04:07:04.254Z,1022.14
2019-02-06T04:08:04.200Z,1022.11
2019-02-06T04:09:04.931Z,1022.13
2019-02-06T04:10:03.905Z,1022.15
2019-02-06T04:11:03.943Z,1022.13
2019-02-06T04:12:04.398Z,1022.09
2019-02-06T04:13:03.921Z,1022.09
2019-02-06T04:14:03.864Z,1022.08
2019-02-06T04:15:04.459Z,1022.06
2019-02-06T04:16:03.948Z,1022.04
2019-02-06T04:17:03.914Z,1022.03
2019-02-06T04:18:03.827Z,1022.01
2019-02-06T04:19:03.781Z,1021.98
2019-02-06T04:20:03.832Z,1022.02
2019-02-06T04:22:55.742Z,1021.99
2019-02-06T04:23:56.187Z,1021.96
2019-02-06T04:24:55.506Z,1022.05
2019-02-06T04:25:56.586Z,1021.97
2019-02-06T04:26:55.309Z,1021.98
2019-02-06T04:27:55.266Z,1022.01
2019-02-06T04:28:55.398Z,1021.99
2019-02-06T04:34:14.588Z,1022.00
2019-02-06T04:35:15.002Z,1021.97
2019-02-06T04:36:15.407Z,1021.98
2019-02-06T04:37:14.795Z,1021.98
2019-02-06T04:38:15.430Z,1022.00
2019-02-06T04:39:23.014Z,1021.94
2019-02-06T04:41:34.170Z,1021.96
2019-02-06T04:42:41.568Z,1021.98
2019-02-06T04:47:10.264Z,1021.89
2019-02-06T04:48:10.439Z,1021.92
2019-02-06T04:49:10.370Z,1021.86
2019-02-06T04:50:11.251Z,1021.93
2019-02-06T04:51:10.746Z,1021.93
2019-02-06T04:52:19.090Z,1021.91
2019-02-06T04:53:10.279Z,1021.86
2019-02-06T04:56:50.467Z,1021.86
2019-02-06T04:57:50.493Z,1021.81
2019-02-06T04:58:50.468Z,1021.80
2019-02-06T04:59:51.197Z,1021.82
2019-02-06T05:00:51.368Z,1021.80
2019-02-06T05:01:50.425Z,1021.82
2019-02-06T05:02:50.251Z,1021.79
2019-02-06T05:03:50.206Z,1021.79
2019-02-06T05:04:50.222Z,1021.84
2019-02-06T05:05:51.044Z,1021.85
2019-02-06T05:06:50.089Z,1021.84
2019-02-06T05:07:50.175Z,1021.87
2019-02-06T05:08:51.136Z,1021.84
2019-02-06T05:09:50.141Z,1021.87
2019-02-06T05:10:58.537Z,1021.86
2019-02-06T05:11:59.311Z,1021.80
2019-02-06T05:13:01.646Z,1021.82
2019-02-06T05:14:01.239Z,1021.80
2019-02-06T05:14:57.688Z,1021.82
2019-02-06T05:15:59.235Z,1021.81
2019-02-06T05:16:50.998Z,1021.84
2019-02-06T05:17:59.411Z,1021.79
2019-02-06T05:18:59.151Z,1021.79
2019-02-06T05:20:00.400Z,1021.80
2019-02-06T05:22:11.416Z,1021.76
2019-02-06T05:23:10.905Z,1021.71
2019-02-06T05:27:14.248Z,1021.73
2019-02-06T05:28:23.085Z,1021.72
2019-02-06T05:29:25.188Z,1021.75
2019-02-06T05:30:14.352Z,1021.72
2019-02-06T05:31:14.403Z,1021.74
2019-02-06T05:32:14.182Z,1021.76
2019-02-06T05:33:14.489Z,1021.79
2019-02-06T05:34:14.165Z,1021.74
2019-02-06T05:35:14.249Z,1021.79
2019-02-06T05:36:14.132Z,1021.76
2019-02-06T05:37:14.110Z,1021.80
2019-02-06T05:38:24.866Z,1021.76
2019-02-06T05:44:48.883Z,1021.91
2019-02-06T05:45:49.963Z,1021.87
2019-02-06T05:46:49.176Z,1021.92
2019-02-06T05:50:33.454Z,1021.78
2019-02-06T05:51:42.738Z,1021.77
2019-02-06T05:52:49.056Z,1021.77
2019-02-06T05:56:15.197Z,1021.71
2019-02-06T05:57:15.363Z,1021.78
2019-02-06T05:58:15.371Z,1021.82
2019-02-06T05:59:15.106Z,1021.81
2019-02-06T06:00:15.450Z,1021.82
2019-02-06T06:01:15.468Z,1021.77
2019-02-06T06:02:15.227Z,1021.78
2019-02-06T06:03:15.011Z,1021.79
2019-02-06T06:04:17.011Z,1021.77
2019-02-06T06:05:15.093Z,1021.75
2019-02-06T06:06:15.589Z,1021.78
2019-02-06T06:07:23.962Z,1021.88
2019-02-06T06:10:58.801Z,1021.83
2019-02-06T06:13:52.053Z,1021.85
2019-02-06T06:14:52.269Z,1021.85
2019-02-06T06:15:54.725Z,1021.88
2019-02-06T06:18:33.354Z,1021.86
2019-02-06T06:19:33.495Z,1021.86
2019-02-06T06:20:33.461Z,1021.82
2019-02-06T06:22:51.346Z,1021.77
2019-02-06T06:23:51.446Z,1021.77
2019-02-06T06:25:01.867Z,1021.74
2019-02-06T06:25:51.366Z,1021.73
2019-02-06T06:26:52.387Z,1021.77
2019-02-06T06:27:51.374Z,1021.79
2019-02-06T06:28:51.376Z,1021.77
2019-02-06T06:29:51.331Z,1021.82
2019-02-06T06:30:51.248Z,1021.83
2019-02-06T06:35:02.437Z,1021.73
2019-02-06T06:36:02.548Z,1021.75
2019-02-06T06:37:02.355Z,1021.79
2019-02-06T06:38:03.897Z,1021.75
2019-02-06T06:39:02.474Z,1021.75
2019-02-06T06:40:02.335Z,1021.70
2019-02-06T06:41:04.229Z,1021.72
2019-02-06T06:42:03.478Z,1021.77
2019-02-06T06:43:16.337Z,1021.76
2019-02-06T06:44:13.301Z,1021.76
2019-02-06T06:46:54.118Z,1021.76
2019-02-06T06:47:55.495Z,1021.73
2019-02-06T06:48:54.268Z,1021.73
2019-02-06T06:51:12.753Z,1021.66
2019-02-06T06:52:14.200Z,1021.67
2019-02-06T06:53:12.747Z,1021.64
2019-02-06T06:54:12.711Z,1021.64
2019-02-06T06:55:12.808Z,1021.61
2019-02-06T06:56:12.955Z,1021.61
2019-02-06T06:57:12.747Z,1021.57
2019-02-06T06:58:15.721Z,1021.54
2019-02-06T06:59:12.761Z,1021.51
2019-02-06T07:00:12.845Z,1021.55
2019-02-06T07:01:13.586Z,1021.54
2019-02-06T07:02:16.150Z,1021.57
2019-02-06T07:03:13.086Z,1021.51
2019-02-06T07:04:14.612Z,1021.55
2019-02-06T07:05:12.641Z,1021.52
2019-02-06T07:07:35.310Z,1021.53
2019-02-06T07:08:35.165Z,1021.51
2019-02-06T07:09:46.418Z,1021.48
2019-02-06T07:14:15.204Z,1021.48
2019-02-06T07:16:33.831Z,1021.39
2019-02-06T07:19:27.310Z,1021.33
2019-02-06T07:22:53.792Z,1021.32
2019-02-06T07:24:18.241Z,1021.26
2019-02-06T07:24:53.908Z,1021.26
2019-02-06T07:27:17.101Z,1021.24
2019-02-06T07:28:11.041Z,1021.24
2019-02-06T07:30:28.474Z,1021.26
2019-02-06T07:31:28.329Z,1021.25
2019-02-06T07:32:28.608Z,1021.26
2019-02-06T07:33:36.922Z,1021.27
2019-02-06T07:34:37.044Z,1021.19
2019-02-06T07:36:48.805Z,1021.24
2019-02-06T07:37:56.193Z,1021.29
2019-02-06T07:38:59.104Z,1021.31
2019-02-06T07:39:57.119Z,1021.25
2019-02-06T07:40:56.871Z,1021.28
2019-02-06T07:41:47.967Z,1021.31
2019-02-06T07:42:48.000Z,1021.28
2019-02-06T07:43:47.881Z,1021.30
2019-02-06T07:44:47.800Z,1021.29
2019-02-06T07:45:47.999Z,1021.31
2019-02-06T07:48:06.801Z,1021.29
2019-02-06T07:49:07.288Z,1021.35
2019-02-06T07:50:06.889Z,1021.31
2019-02-06T07:51:06.591Z,1021.33
2019-02-06T07:52:07.186Z,1021.42
2019-02-06T07:53:16.271Z,1021.36
2019-02-06T07:54:06.975Z,1021.42
2019-02-06T07:55:07.262Z,1021.40
2019-02-06T07:57:35.240Z,1021.39
2019-02-06T07:58:38.890Z,1021.39
2019-02-06T07:59:35.862Z,1021.37
2019-02-06T08:01:55.203Z,1021.38
2019-02-06T08:02:55.579Z,1021.30
2019-02-06T08:03:54.689Z,1021.28
2019-02-06T08:04:55.528Z,1021.26
2019-02-06T08:06:01.749Z,1021.32
2019-02-06T08:06:54.778Z,1021.28
2019-02-06T08:07:54.869Z,1021.31
2019-02-06T08:08:54.689Z,1021.25
2019-02-06T08:09:55.567Z,1021.32
2019-02-06T08:13:37.071Z,1021.27
2019-02-06T08:17:17.989Z,1021.23
2019-02-06T08:18:17.998Z,1021.29
2019-02-06T08:19:18.270Z,1021.22
2019-02-06T08:20:18.034Z,1021.20
2019-02-06T08:23:31.245Z,1021.17
2019-02-06T08:24:31.411Z,1021.13
2019-02-06T08:25:31.532Z,1021.15
2019-02-06T08:26:31.976Z,1021.15
2019-02-06T08:27:31.248Z,1021.13
2019-02-06T08:28:42.383Z,1021.10
2019-02-06T08:29:31.406Z,1021.11
2019-02-06T08:30:46.577Z,1021.13
2019-02-06T08:31:31.238Z,1021.02
2019-02-06T08:33:51.068Z,1021.03
2019-02-06T08:34:52.847Z,1021.04
2019-02-06T08:35:51.012Z,1020.99
2019-02-06T08:36:51.114Z,1020.93
2019-02-06T08:37:51.357Z,1020.97
2019-02-06T08:38:51.710Z,1021.01
2019-02-06T08:39:51.032Z,1020.94
2019-02-06T08:40:51.028Z,1020.96
2019-02-06T08:41:52.010Z,1020.90
2019-02-06T08:42:52.610Z,1020.88
2019-02-06T08:43:50.952Z,1020.88
2019-02-06T08:44:50.922Z,1020.87
2019-02-06T08:45:51.983Z,1020.87
2019-02-06T08:46:50.876Z,1020.90
2019-02-06T08:47:51.035Z,1020.90
2019-02-06T08:48:51.022Z,1020.85
2019-02-06T08:49:51.900Z,1020.81
2019-02-06T08:50:50.954Z,1020.87
2019-02-06T08:51:52.624Z,1020.80
2019-02-06T08:52:50.945Z,1020.82
2019-02-06T08:53:50.896Z,1020.84
2019-02-06T08:54:50.815Z,1020.77
2019-02-06T08:55:50.821Z,1020.72
2019-02-06T08:56:51.595Z,1020.84
2019-02-06T08:57:51.682Z,1020.73
2019-02-06T08:58:50.815Z,1020.80
2019-02-06T08:59:50.850Z,1020.73
2019-02-06T09:00:50.780Z,1020.70
2019-02-06T09:01:50.748Z,1020.68
2019-02-06T09:02:50.795Z,1020.73
2019-02-06T09:03:51.670Z,1020.69
2019-02-06T09:04:56.006Z,1020.70
2019-02-06T09:05:50.703Z,1020.63
2019-02-06T09:06:50.710Z,1020.64
2019-02-06T09:07:50.694Z,1020.60
2019-02-06T09:08:59.283Z,1020.63
2019-02-06T09:09:51.725Z,1020.68
2019-02-06T09:10:50.827Z,1020.74
2019-02-06T09:11:51.677Z,1020.69
2019-02-06T09:12:51.698Z,1020.65
2019-02-06T09:13:50.706Z,1020.64
2019-02-06T09:14:50.737Z,1020.59
2019-02-06T09:15:50.659Z,1020.72
2019-02-06T09:16:50.625Z,1020.74
2019-02-06T09:17:50.634Z,1020.74
2019-02-06T09:18:50.552Z,1020.72
2019-02-06T09:19:50.581Z,1020.82
2019-02-06T09:20:52.652Z,1020.74
2019-02-06T09:21:51.576Z,1020.70
2019-02-06T09:22:58.984Z,1020.72
2019-02-06T09:25:11.058Z,1020.69
2019-02-06T09:26:18.936Z,1020.62
2019-02-06T09:28:29.657Z,1020.73
2019-02-06T09:29:40.624Z,1020.70
2019-02-06T09:31:43.347Z,1020.73
2019-02-06T09:32:51.364Z,1020.70
2019-02-06T09:33:51.394Z,1020.70
2019-02-06T09:34:43.381Z,1020.69
2019-02-06T09:35:52.705Z,1020.74
2019-02-06T09:36:53.052Z,1020.74
2019-02-06T09:37:54.338Z,1020.68
2019-02-06T09:38:53.742Z,1020.67
2019-02-06T09:41:01.432Z,1020.67
2019-02-06T09:42:10.271Z,1020.57
2019-02-06T09:43:10.497Z,1020.63
2019-02-06T09:44:09.537Z,1020.51
2019-02-06T09:46:18.001Z,1020.52
2019-02-06T09:47:27.692Z,1020.47
2019-02-06T09:48:26.824Z,1020.54
2019-02-06T09:49:27.612Z,1020.59
2019-02-06T09:50:18.180Z,1020.53
2019-02-06T09:51:19.370Z,1020.50
2019-02-06T09:52:17.901Z,1020.55
2019-02-06T09:53:27.014Z,1020.48
2019-02-06T09:54:18.124Z,1020.46
2019-02-06T09:55:17.995Z,1020.33
2019-02-06T10:00:20.636Z,1020.42
2019-02-06T10:01:21.542Z,1020.40
2019-02-06T10:02:28.820Z,1020.26
2019-02-06T10:03:29.645Z,1020.35
2019-02-06T10:04:20.846Z,1020.37
2019-02-06T10:05:20.696Z,1020.33
2019-02-06T10:06:20.874Z,1020.38
2019-02-06T10:07:23.149Z,1020.36
2019-02-06T10:08:20.543Z,1020.32
2019-02-06T10:09:22.930Z,1020.26
2019-02-06T10:10:20.536Z,1020.31
2019-02-06T10:11:20.490Z,1020.34
2019-02-06T10:12:21.120Z,1020.33
2019-02-06T10:13:20.533Z,1020.30
2019-02-06T10:14:20.517Z,1020.32
2019-02-06T10:15:20.467Z,1020.33
2019-02-06T10:16:20.626Z,1020.34
2019-02-06T10:17:21.144Z,1020.31
2019-02-06T10:18:22.017Z,1020.22
2019-02-06T10:19:21.125Z,1020.28
2019-02-06T10:20:20.614Z,1020.21
2019-02-06T10:21:20.501Z,1020.18
2019-02-06T10:22:20.460Z,1020.23
2019-02-06T10:23:20.413Z,1020.19
2019-02-06T10:24:20.408Z,1020.12
2019-02-06T10:25:20.379Z,1020.09
2019-02-06T10:27:32.005Z,1020.09
2019-02-06T10:28:42.477Z,1020.01
2019-02-06T10:29:40.405Z,1019.97
2019-02-06T10:30:40.516Z,1019.98
2019-02-06T10:31:32.904Z,1019.90
2019-02-06T10:34:01.351Z,1019.86
2019-02-06T10:35:01.615Z,1019.89
2019-02-06T10:36:01.463Z,1019.84
2019-02-06T10:37:01.384Z,1019.88
2019-02-06T10:38:01.371Z,1019.90
2019-02-06T10:39:01.382Z,1019.80
2019-02-06T10:40:01.737Z,1019.85
2019-02-06T10:41:04.308Z,1019.78
2019-02-06T10:42:01.314Z,1019.87
2019-02-06T10:43:01.314Z,1019.86
2019-02-06T10:44:01.360Z,1019.84
2019-02-06T10:45:02.895Z,1019.81
2019-02-06T10:46:01.300Z,1019.74
2019-02-06T10:47:01.239Z,1019.72
2019-02-06T10:48:01.324Z,1019.63
2019-02-06T10:49:01.402Z,1019.78
2019-02-06T10:50:01.254Z,1019.73
2019-02-06T10:51:01.842Z,1019.70
2019-02-06T10:52:01.180Z,1019.72
2019-02-06T10:53:01.159Z,1019.70
2019-02-06T10:54:01.255Z,1019.74
2019-02-06T10:55:01.185Z,1019.66
2019-02-06T10:56:01.233Z,1019.66
2019-02-06T10:57:01.917Z,1019.69
2019-02-06T10:58:01.887Z,1019.67
2019-02-06T10:59:01.072Z,1019.63
2019-02-06T11:00:01.151Z,1019.60
2019-02-06T11:01:01.109Z,1019.65
2019-02-06T11:02:01.101Z,1019.64
2019-02-06T11:03:01.855Z,1019.57
2019-02-06T11:04:01.854Z,1019.60
2019-02-06T11:05:01.961Z,1019.59
2019-02-06T11:06:01.044Z,1019.61
2019-02-06T11:07:01.005Z,1019.66
2019-02-06T11:08:01.006Z,1019.64
2019-02-06T11:09:01.036Z,1019.60
2019-02-06T11:10:00.978Z,1019.71
2019-02-06T11:11:00.957Z,1019.54
2019-02-06T11:12:00.995Z,1019.51
2019-02-06T11:13:00.969Z,1019.49
2019-02-06T11:14:00.942Z,1019.41
2019-02-06T11:15:01.934Z,1019.49
2019-02-06T11:16:00.993Z,1019.54
2019-02-06T11:19:30.512Z,1019.44
2019-02-06T11:20:38.932Z,1019.35
2019-02-06T11:21:30.584Z,1019.43
2019-02-06T11:22:30.586Z,1019.43
2019-02-06T11:23:30.518Z,1019.45
2019-02-06T11:24:30.405Z,1019.46
2019-02-06T11:25:30.422Z,1019.53
2019-02-06T11:26:30.368Z,1019.47
2019-02-06T11:27:30.377Z,1019.41
2019-02-06T11:28:30.355Z,1019.38
2019-02-06T11:29:30.354Z,1019.32
2019-02-06T11:30:30.424Z,1019.30
2019-02-06T11:31:30.341Z,1019.44
2019-02-06T11:32:31.324Z,1019.25
2019-02-06T11:33:30.268Z,1019.29
2019-02-06T11:34:30.320Z,1019.23
2019-02-06T11:35:30.336Z,1019.29
2019-02-06T11:36:30.292Z,1019.20
2019-02-06T11:37:30.248Z,1019.15
2019-02-06T11:38:30.253Z,1019.17
2019-02-06T11:39:30.211Z,1019.24
2019-02-06T11:40:30.260Z,1019.06
2019-02-06T11:41:30.221Z,1019.06
2019-02-06T11:42:30.849Z,1019.11
2019-02-06T11:43:32.070Z,1019.05
2019-02-06T11:44:30.199Z,1019.04
2019-02-06T11:45:30.224Z,1019.13
2019-02-06T11:46:30.133Z,1019.09
2019-02-06T11:47:30.211Z,1019.12
2019-02-06T11:48:30.176Z,1019.14
2019-02-06T11:49:30.126Z,1019.15
2019-02-06T11:50:30.163Z,1019.13
2019-02-06T11:51:30.072Z,1019.00
2019-02-06T11:53:32.454Z,1018.83
2019-02-06T11:54:33.434Z,1018.83
2019-02-06T11:55:32.496Z,1018.80
2019-02-06T11:56:32.318Z,1018.85
2019-02-06T11:57:32.581Z,1018.81
2019-02-06T11:58:32.332Z,1018.71
2019-02-06T11:59:32.322Z,1018.62
2019-02-06T12:00:32.325Z,1018.67
2019-02-06T12:01:32.319Z,1018.64
2019-02-06T12:02:37.311Z,1018.68
2019-02-06T12:03:33.875Z,1018.71
2019-02-06T12:04:32.235Z,1018.65
2019-02-06T12:05:32.238Z,1018.59
2019-02-06T12:06:33.215Z,1018.58
2019-02-06T12:07:32.175Z,1018.49
2019-02-06T12:08:32.159Z,1018.51
2019-02-06T12:09:32.224Z,1018.55
2019-02-06T12:10:32.187Z,1018.47
2019-02-06T12:11:32.187Z,1018.45
2019-02-06T12:12:32.123Z,1018.48
2019-02-06T12:13:32.133Z,1018.47
2019-02-06T12:14:32.248Z,1018.49
2019-02-06T12:15:32.144Z,1018.44
2019-02-06T12:16:32.109Z,1018.50
2019-02-06T12:17:32.879Z,1018.53
2019-02-06T12:18:32.164Z,1018.45
2019-02-06T12:19:45.895Z,1018.50
2019-02-06T12:20:32.237Z,1018.43
2019-02-06T12:24:45.042Z,1018.31
2019-02-06T12:27:03.534Z,1018.31
2019-02-06T12:30:45.833Z,1018.29
2019-02-06T12:31:54.686Z,1018.21
2019-02-06T12:32:52.364Z,1018.22
2019-02-06T12:33:45.770Z,1018.23
2019-02-06T12:34:45.717Z,1018.19
2019-02-06T12:35:46.212Z,1018.12
2019-02-06T12:36:46.728Z,1018.13
2019-02-06T12:37:45.777Z,1018.14
2019-02-06T12:38:53.246Z,1018.09
2019-02-06T12:39:46.687Z,1018.08
2019-02-06T12:40:45.753Z,1018.02
2019-02-06T12:41:45.662Z,1018.07
2019-02-06T12:42:46.140Z,1018.11
2019-02-06T12:43:45.649Z,1018.01
2019-02-06T12:44:45.634Z,1018.00
2019-02-06T12:45:45.726Z,1018.00
2019-02-06T12:46:45.606Z,1017.83
2019-02-06T12:47:45.633Z,1017.84
2019-02-06T12:48:45.588Z,1017.90
2019-02-06T12:49:45.597Z,1017.85
2019-02-06T12:50:45.658Z,1017.85
2019-02-06T12:51:45.557Z,1017.89
2019-02-06T12:52:53.825Z,1017.85
2019-02-06T12:53:52.665Z,1017.85
2019-02-06T12:54:45.594Z,1017.88
2019-02-06T12:55:53.574Z,1017.84
2019-02-06T12:56:53.559Z,1017.84
2019-02-06T12:57:54.047Z,1017.79
2019-02-06T12:58:46.025Z,1017.75
2019-02-06T12:59:45.621Z,1017.76
2019-02-06T13:00:53.641Z,1017.75
2019-02-06T13:01:45.507Z,1017.72
2019-02-06T13:02:57.317Z,1017.70
2019-02-06T13:05:03.139Z,1017.69
2019-02-06T13:06:03.990Z,1017.78
2019-02-06T13:07:03.097Z,1017.77
2019-02-06T13:08:03.161Z,1017.72
2019-02-06T13:09:03.019Z,1017.69
2019-02-06T13:10:02.992Z,1017.73
2019-02-06T13:11:03.074Z,1017.69
2019-02-06T13:12:11.363Z,1017.69
2019-02-06T13:13:11.929Z,1017.71
2019-02-06T13:14:11.947Z,1017.63
2019-02-06T13:15:12.461Z,1017.63
2019-02-06T13:16:10.946Z,1017.66
2019-02-06T13:18:24.009Z,1017.56
2019-02-06T13:19:29.366Z,1017.61
2019-02-06T13:20:29.354Z,1017.55
2019-02-06T13:21:28.083Z,1017.65
2019-02-06T13:22:28.675Z,1017.62
2019-02-06T13:24:38.143Z,1017.54
2019-02-06T13:28:07.949Z,1017.54
2019-02-06T13:32:52.724Z,1017.50
2019-02-06T13:33:52.769Z,1017.44
2019-02-06T13:34:52.655Z,1017.44
2019-02-06T13:35:59.750Z,1017.43
2019-02-06T13:37:01.435Z,1017.41
2019-02-06T13:38:01.494Z,1017.38
2019-02-06T13:38:53.462Z,1017.45
2019-02-06T13:39:52.584Z,1017.48
2019-02-06T13:40:52.624Z,1017.43
2019-02-06T13:41:52.591Z,1017.42
2019-02-06T13:42:52.559Z,1017.46
2019-02-06T13:44:01.047Z,1017.42
2019-02-06T13:46:10.314Z,1017.41
2019-02-06T13:47:10.213Z,1017.41
2019-02-06T13:48:10.312Z,1017.35
2019-02-06T13:49:12.026Z,1017.37
2019-02-06T13:50:21.346Z,1017.28
2019-02-06T13:51:17.448Z,1017.29
2019-02-06T13:53:22.104Z,1017.20
2019-02-06T13:54:22.628Z,1017.13
2019-02-06T13:55:22.157Z,1017.29
2019-02-06T13:56:22.035Z,1017.27
2019-02-06T13:57:33.159Z,1017.19
2019-02-06T13:58:22.998Z,1017.22
2019-02-06T13:59:21.986Z,1017.16
2019-02-06T14:00:21.955Z,1017.12
2019-02-06T14:01:25.839Z,1017.09
2019-02-06T14:02:21.950Z,1017.14
2019-02-06T14:03:21.917Z,1017.15
2019-02-06T14:04:21.931Z,1017.13
2019-02-06T14:05:21.916Z,1017.11
2019-02-06T14:06:29.163Z,1017.05
2019-02-06T14:07:22.114Z,1017.09
2019-02-06T14:08:24.671Z,1017.09
2019-02-06T14:09:23.925Z,1017.10
2019-02-06T14:10:21.845Z,1017.02
2019-02-06T14:11:22.620Z,1017.09
2019-02-06T14:12:21.782Z,1017.08
2019-02-06T14:13:21.846Z,1017.06
2019-02-06T14:14:21.847Z,1016.99
2019-02-06T14:15:21.840Z,1016.98
2019-02-06T14:16:23.611Z,1016.99
2019-02-06T14:17:21.774Z,1016.95
2019-02-06T14:18:21.775Z,1016.96
2019-02-06T14:19:21.752Z,1016.90
2019-02-06T14:20:21.784Z,1016.88
2019-02-06T14:21:23.601Z,1016.91
2019-02-06T14:22:21.747Z,1016.85
2019-02-06T14:23:21.800Z,1016.91
2019-02-06T14:24:21.706Z,1016.79
2019-02-06T14:25:21.674Z,1016.87
2019-02-06T14:26:21.713Z,1016.88
2019-02-06T14:27:21.685Z,1016.89
2019-02-06T14:28:21.679Z,1016.80
2019-02-06T14:29:21.673Z,1016.84
2019-02-06T14:30:21.663Z,1016.91
2019-02-06T14:31:21.653Z,1016.97
2019-02-06T14:32:22.712Z,1016.81
2019-02-06T14:33:21.597Z,1016.84
2019-02-06T14:34:21.618Z,1016.79
2019-02-06T14:35:21.590Z,1016.75
2019-02-06T14:36:21.675Z,1016.79
2019-02-06T14:37:22.111Z,1016.77
2019-02-06T14:38:21.559Z,1016.83
2019-02-06T14:39:22.080Z,1016.79
2019-02-06T14:40:22.082Z,1016.85
2019-02-06T14:41:21.557Z,1016.83
2019-02-06T14:42:21.470Z,1016.82
2019-02-06T14:43:22.087Z,1016.83
2019-02-06T14:44:21.500Z,1016.79
2019-02-06T14:45:21.488Z,1016.86
2019-02-06T14:46:21.487Z,1016.77
2019-02-06T14:47:21.477Z,1016.78
2019-02-06T14:48:21.412Z,1016.83
2019-02-06T14:49:21.430Z,1016.74
2019-02-06T14:50:31.147Z,1016.64
2019-02-06T14:51:21.668Z,1016.73
2019-02-06T14:52:21.520Z,1016.74
2019-02-06T14:53:21.401Z,1016.79
2019-02-06T14:54:29.768Z,1016.81
2019-02-06T14:55:30.473Z,1016.73
2019-02-06T14:56:28.602Z,1016.71